createdAt,value
2018-03-01T00:00:19.025Z,42.47
2018-03-01T00:02:47.589Z,42.65
2018-03-01T00:05:16.214Z,42.45
2018-03-01T00:07:45.593Z,42.96
2018-03-01T00:10:14.161Z,42.98
2018-03-01T00:12:42.840Z,42.04
2018-03-01T00:15:11.624Z,42.61
2018-03-01T00:17:40.180Z,43.39
2018-03-01T00:20:08.743Z,43.41
2018-03-01T00:22:38.163Z,43.37
2018-03-01T00:25:06.727Z,43.48
2018-03-01T00:27:36.053Z,43.52
2018-03-01T00:30:04.821Z,43.41
2018-03-01T00:32:33.385Z,44.16
2018-03-01T00:35:02.717Z,42.82
2018-03-01T00:37:31.319Z,43.24
2018-03-01T00:39:59.873Z,43.41
2018-03-01T00:42:28.436Z,43.61
2018-03-01T00:44:57.933Z,44.28
2018-03-01T00:47:26.492Z,43.84
2018-03-01T00:49:55.057Z,44.29
2018-03-01T00:52:23.656Z,43.67
2018-03-01T00:54:52.217Z,43.59
2018-03-01T00:57:20.776Z,43.64
2018-03-01T00:59:49.600Z,43.36
2018-03-01T01:02:18.157Z,43.64
2018-03-01T01:04:46.716Z,43.21
2018-03-01T01:07:16.085Z,43.12
2018-03-01T01:09:44.652Z,43.41
2018-03-01T01:12:13.209Z,43.38
2018-03-01T01:14:41.828Z,43.55
2018-03-01T01:17:10.388Z,42.93
2018-03-01T01:19:38.952Z,43.49
2018-03-01T01:22:07.579Z,43.59
2018-03-01T01:24:36.136Z,44.05
2018-03-01T01:27:04.698Z,44.07
2018-03-01T01:29:34.068Z,44.01
2018-03-01T01:32:02.632Z,44.18
2018-03-01T01:34:31.179Z,44.50
2018-03-01T01:36:59.999Z,43.53
2018-03-01T01:39:28.564Z,44.29
2018-03-01T01:41:58.151Z,44.20
2018-03-01T01:44:26.801Z,44.27
2018-03-01T01:46:55.373Z,44.21
2018-03-01T01:49:23.943Z,44.64
2018-03-01T01:51:52.838Z,44.98
2018-03-01T01:54:21.403Z,45.17
2018-03-01T01:56:49.964Z,44.75
2018-03-01T01:59:18.579Z,44.71
2018-03-01T02:01:47.140Z,44.18
2018-03-01T02:04:15.696Z,44.12
2018-03-01T02:06:45.353Z,43.15
2018-03-01T02:09:13.916Z,43.48
2018-03-01T02:11:42.487Z,43.70
2018-03-01T02:14:11.318Z,44.14
2018-03-01T02:16:39.894Z,44.14
2018-03-01T02:19:08.460Z,44.65
2018-03-01T02:21:37.576Z,44.44
2018-03-01T02:24:06.137Z,44.52
2018-03-01T02:26:34.697Z,44.28
2018-03-01T02:29:03.305Z,44.03
2018-03-01T02:31:31.871Z,43.49
2018-03-01T02:34:00.437Z,45.64
2018-03-01T02:36:34.914Z,45.79
2018-03-01T02:39:03.536Z,45.88
2018-03-01T02:41:32.869Z,45.45
2018-03-01T02:44:01.493Z,45.70
2018-03-01T02:46:30.373Z,45.83
2018-03-01T02:48:58.937Z,45.12
2018-03-01T02:51:27.645Z,44.67
2018-03-01T02:53:56.209Z,44.89
2018-03-01T02:56:24.777Z,44.69
2018-03-01T02:58:53.599Z,44.92
2018-03-01T03:01:22.181Z,44.29
2018-03-01T03:03:50.741Z,44.46
2018-03-01T03:06:19.352Z,44.83
2018-03-01T03:08:47.921Z,44.54
2018-03-01T03:11:16.476Z,44.38
2018-03-01T03:13:45.089Z,45.24
2018-03-01T03:16:13.665Z,45.51
2018-03-01T03:18:42.244Z,46.62
2018-03-01T03:21:10.925Z,47.14
2018-03-01T03:23:39.484Z,46.81
2018-03-01T03:26:08.816Z,46.71
2018-03-01T03:28:37.432Z,45.45
2018-03-01T03:31:06.010Z,43.74
2018-03-01T03:33:34.581Z,44.43
2018-03-01T03:36:03.193Z,45.28
2018-03-01T03:38:31.761Z,44.38
2018-03-01T03:41:00.335Z,44.42
2018-03-01T03:43:29.046Z,43.01
2018-03-01T03:45:57.613Z,42.72
2018-03-01T03:48:26.181Z,41.86
2018-03-01T03:50:54.970Z,42.38
2018-03-01T03:53:23.540Z,45.84
2018-03-01T03:55:52.104Z,45.84
2018-03-01T03:58:20.732Z,46.57
2018-03-01T04:00:49.296Z,45.89
2018-03-01T04:03:17.856Z,45.17
2018-03-01T04:05:46.478Z,45.51
2018-03-01T04:08:15.040Z,44.59
2018-03-01T04:10:43.605Z,44.21
2018-03-01T04:13:12.542Z,43.44
2018-03-01T04:15:41.117Z,44.29
2018-03-01T04:18:10.451Z,44.16
2018-03-01T04:20:39.213Z,47.27
2018-03-01T04:23:07.792Z,47.60
2018-03-01T04:25:36.407Z,48.55
2018-03-01T04:28:05.021Z,46.41
2018-03-01T04:30:33.593Z,46.99
2018-03-01T04:33:02.169Z,47.19
2018-03-01T04:35:30.785Z,48.35
2018-03-01T04:37:59.360Z,46.78
2018-03-01T04:40:27.932Z,47.57
2018-03-01T04:42:56.610Z,46.09
2018-03-01T04:45:25.047Z,46.55
2018-03-01T04:47:54.255Z,46.00
2018-03-01T04:50:23.601Z,45.73
2018-03-01T04:52:52.054Z,46.07
2018-03-01T04:55:20.493Z,45.60
2018-03-01T04:57:48.970Z,45.76
2018-03-01T05:00:17.407Z,45.23
2018-03-01T05:02:45.845Z,45.50
2018-03-01T05:05:14.799Z,45.43
2018-03-01T05:07:43.368Z,44.81
2018-03-01T05:10:11.928Z,43.97
2018-03-01T05:12:40.549Z,43.40
2018-03-01T05:15:09.116Z,42.39
2018-03-01T05:17:37.681Z,44.02
2018-03-01T05:20:06.403Z,44.95
2018-03-01T05:22:34.974Z,41.94
2018-03-01T05:25:03.540Z,43.20
2018-03-01T05:27:32.328Z,45.81
2018-03-01T05:30:02.277Z,45.94
2018-03-01T05:32:31.370Z,44.01
2018-03-01T05:34:59.984Z,42.69
2018-03-01T05:37:31.240Z,43.07
2018-03-01T05:40:01.089Z,42.89
2018-03-01T05:42:29.653Z,43.39
2018-03-01T05:44:59.307Z,45.21
2018-03-01T05:47:28.881Z,46.72
2018-03-01T05:49:58.625Z,44.40
2018-03-01T05:52:27.264Z,43.71
2018-03-01T05:54:56.089Z,43.42
2018-03-01T05:57:24.652Z,43.45
2018-03-01T05:59:53.223Z,43.46
2018-03-01T06:02:22.004Z,43.42
2018-03-01T06:04:50.566Z,41.74
2018-03-01T06:07:19.132Z,39.56
2018-03-01T06:09:47.741Z,36.51
2018-03-01T06:12:17.072Z,34.78
2018-03-01T06:14:45.632Z,34.41
2018-03-01T06:17:15.116Z,34.43
2018-03-01T06:19:43.676Z,32.83
2018-03-01T06:22:12.258Z,33.57
2018-03-01T06:24:40.970Z,33.22
2018-03-01T06:27:10.341Z,34.14
2018-03-01T06:29:38.904Z,35.69
2018-03-01T06:34:43.166Z,32.89
2018-03-01T06:37:12.633Z,33.31
2018-03-01T06:39:41.201Z,31.79
2018-03-01T06:42:09.764Z,31.43
2018-03-01T06:44:39.651Z,32.23
2018-03-01T06:47:08.337Z,31.81
2018-03-01T06:49:37.022Z,32.76
2018-03-01T06:52:05.905Z,32.72
2018-03-01T06:54:34.540Z,32.76
2018-03-01T06:57:03.278Z,33.05
2018-03-01T06:59:32.076Z,31.07
2018-03-01T07:02:01.541Z,31.25
2018-03-01T07:04:30.510Z,29.97
2018-03-01T07:06:59.218Z,28.96
2018-03-01T07:09:27.871Z,29.37
2018-03-01T07:11:56.735Z,27.80
2018-03-01T07:14:26.200Z,28.24
2018-03-01T07:16:54.808Z,29.34
2018-03-01T07:19:24.566Z,29.19
2018-03-01T07:21:53.275Z,31.31
2018-03-01T07:24:21.832Z,30.05
2018-03-01T07:26:50.793Z,29.02
2018-03-01T07:29:20.254Z,28.09
2018-03-01T07:31:48.840Z,29.72
2018-03-01T07:34:17.897Z,30.77
2018-03-01T07:36:46.564Z,29.03
2018-03-01T07:39:16.029Z,29.02
2018-03-01T07:41:45.200Z,29.29
2018-03-01T07:44:13.905Z,27.57
2018-03-01T07:46:42.597Z,28.19
2018-03-01T07:49:11.324Z,28.38
2018-03-01T07:51:40.786Z,27.22
2018-03-01T07:54:09.413Z,28.59
2018-03-01T07:56:38.877Z,28.42
2018-03-01T07:59:07.560Z,28.41
2018-03-01T08:01:36.190Z,29.20
2018-03-01T08:04:06.009Z,28.62
2018-03-01T08:06:34.745Z,28.65
2018-03-01T08:09:03.443Z,31.39
2018-03-01T08:11:33.709Z,31.02
2018-03-01T08:14:02.337Z,29.05
2018-03-01T08:16:30.924Z,27.32
2018-03-01T08:18:59.611Z,29.05
2018-03-01T08:21:28.296Z,29.96
2018-03-01T08:23:56.919Z,29.15
2018-03-01T08:26:27.369Z,28.48
2018-03-01T08:28:56.087Z,26.65
2018-03-01T08:31:24.776Z,28.60
2018-03-01T08:33:53.767Z,31.03
2018-03-01T08:36:22.411Z,31.66
2018-03-01T08:38:51.139Z,31.21
2018-03-01T08:41:19.934Z,27.86
2018-03-01T08:43:48.513Z,28.58
2018-03-01T08:46:17.096Z,31.34
2018-03-01T08:48:45.834Z,33.36
2018-03-01T08:51:14.517Z,32.17
2018-03-01T08:53:43.976Z,28.40
2018-03-01T08:56:12.659Z,27.98
2018-03-01T08:58:41.349Z,30.20
2018-03-01T09:01:10.035Z,30.07
2018-03-01T09:03:38.919Z,32.46
2018-03-01T09:06:07.605Z,31.70
2018-03-01T09:08:36.240Z,32.14
2018-03-01T09:11:05.860Z,31.50
2018-03-01T09:13:34.584Z,33.48
2018-03-01T09:16:03.271Z,32.93
2018-03-01T09:18:32.068Z,32.31
2018-03-01T09:21:00.750Z,33.09
2018-03-01T09:23:29.391Z,31.64
2018-03-01T09:25:58.320Z,31.96
2018-03-01T09:28:26.955Z,33.27
2018-03-01T09:30:56.422Z,32.62
2018-03-01T09:33:25.189Z,32.08
2018-03-01T09:35:53.887Z,31.16
2018-03-01T09:38:22.527Z,32.35
2018-03-01T09:40:51.873Z,32.98
2018-03-01T09:43:20.510Z,33.24
2018-03-01T09:45:49.956Z,32.28
2018-03-01T09:48:18.951Z,31.86
2018-03-01T09:50:47.588Z,29.28
2018-03-01T09:53:17.046Z,29.74
2018-03-01T09:55:45.832Z,29.59
2018-03-01T09:58:14.518Z,30.44
2018-03-01T10:00:43.302Z,30.95
2018-03-01T10:03:12.126Z,28.54
2018-03-01T10:05:41.496Z,28.73
2018-03-01T10:08:11.783Z,28.99
2018-03-01T10:10:40.432Z,27.28
2018-03-01T10:13:09.158Z,29.07
2018-03-01T10:15:37.950Z,29.33
2018-03-01T10:18:06.636Z,29.85
2018-03-01T10:20:35.321Z,26.16
2018-03-01T10:23:04.107Z,27.22
2018-03-01T10:25:32.793Z,26.01
2018-03-01T10:28:02.303Z,30.23
2018-03-01T10:30:31.185Z,26.38
2018-03-01T10:32:59.876Z,28.06
2018-03-01T10:35:28.556Z,28.39
2018-03-01T10:37:57.451Z,26.17
2018-03-01T10:40:26.138Z,29.28
2018-03-01T10:42:54.824Z,29.37
2018-03-01T10:45:23.696Z,29.36
2018-03-01T10:47:52.339Z,26.08
2018-03-01T10:50:21.803Z,25.75
2018-03-01T10:52:50.752Z,26.92
2018-03-01T10:55:19.481Z,25.32
2018-03-01T10:57:48.934Z,23.69
2018-03-01T11:03:21.789Z,22.44
2018-03-01T11:05:50.781Z,21.14
2018-03-01T11:08:19.468Z,24.57
2018-03-01T11:10:48.054Z,24.52
2018-03-01T11:13:17.027Z,22.88
2018-03-01T11:15:47.240Z,22.33
2018-03-01T11:18:15.915Z,22.65
2018-03-01T11:20:44.612Z,22.68
2018-03-01T11:23:13.396Z,22.84
2018-03-01T11:25:42.071Z,24.04
2018-03-01T11:28:11.015Z,22.68
2018-03-01T11:30:40.474Z,23.60
2018-03-01T11:33:09.159Z,24.52
2018-03-01T11:35:38.054Z,24.14
2018-03-01T11:38:06.640Z,24.21
2018-03-01T11:40:35.217Z,22.67
2018-03-01T11:43:03.968Z,22.23
2018-03-01T11:45:32.635Z,23.15
2018-03-01T11:48:02.098Z,23.19
2018-03-01T11:50:30.882Z,23.01
2018-03-01T11:52:59.570Z,23.08
2018-03-01T11:55:28.153Z,23.09
2018-03-01T11:57:56.853Z,22.96
2018-03-01T12:00:25.545Z,22.08
2018-03-01T12:02:54.246Z,22.29
2018-03-01T12:05:23.081Z,23.16
2018-03-01T12:07:51.716Z,23.38
2018-03-01T12:10:20.297Z,23.65
2018-03-01T12:12:49.458Z,21.11
2018-03-01T12:15:18.126Z,23.85
2018-03-01T12:17:47.592Z,23.10
2018-03-01T12:20:16.378Z,25.85
2018-03-01T12:22:45.061Z,24.72
2018-03-01T12:25:13.748Z,22.63
2018-03-01T12:27:42.436Z,22.80
2018-03-01T12:30:11.107Z,23.85
2018-03-01T12:32:39.804Z,23.05
2018-03-01T12:35:08.491Z,21.40
2018-03-01T12:37:37.915Z,21.99
2018-03-01T12:40:07.248Z,23.47
2018-03-01T12:42:35.944Z,21.72
2018-03-01T12:45:04.626Z,21.83
2018-03-01T12:47:33.312Z,23.39
2018-03-01T12:50:02.004Z,25.62
2018-03-01T12:52:30.739Z,23.12
2018-03-01T12:55:00.193Z,24.55
2018-03-01T12:57:28.877Z,24.62
2018-03-01T12:59:57.621Z,29.31
2018-03-01T13:02:26.348Z,25.72
2018-03-01T13:04:55.961Z,25.04
2018-03-01T13:07:24.542Z,24.61
2018-03-01T13:09:53.244Z,24.08
2018-03-01T13:12:21.919Z,25.70
2018-03-01T13:14:50.600Z,25.19
2018-03-01T13:17:19.345Z,24.50
2018-03-01T13:19:48.538Z,22.81
2018-03-01T13:22:17.985Z,22.97
2018-03-01T13:24:46.673Z,22.70
2018-03-01T13:27:15.413Z,22.94
2018-03-01T13:29:44.910Z,23.27
2018-03-01T13:32:14.474Z,23.72
2018-03-01T13:34:47.530Z,23.48
2018-03-01T13:37:16.244Z,23.44
2018-03-01T13:39:44.977Z,24.62
2018-03-01T13:42:18.499Z,24.92
2018-03-01T13:44:47.241Z,22.94
2018-03-01T13:47:15.866Z,22.31
2018-03-01T13:49:44.650Z,23.47
2018-03-01T13:52:13.445Z,23.46
2018-03-01T13:54:42.230Z,24.57
2018-03-01T13:57:11.061Z,22.62
2018-03-01T13:59:40.425Z,24.00
2018-03-01T14:02:09.212Z,24.41
2018-03-01T14:04:38.300Z,23.12
2018-03-01T14:07:12.472Z,23.93
2018-03-01T14:09:41.216Z,22.65
2018-03-01T14:12:20.587Z,26.59
2018-03-01T14:14:50.055Z,27.90
2018-03-01T14:17:20.887Z,26.72
2018-03-01T14:20:01.554Z,27.39
2018-03-01T14:22:35.710Z,27.75
2018-03-01T14:25:06.604Z,28.68
2018-03-01T14:27:36.943Z,29.62
2018-03-01T14:30:12.161Z,28.23
2018-03-01T14:32:40.828Z,27.29
2018-03-01T14:35:09.549Z,26.83
2018-03-01T14:37:38.266Z,28.07
2018-03-01T14:40:07.601Z,27.18
2018-03-01T14:42:36.270Z,29.11
2018-03-01T14:45:05.025Z,29.35
2018-03-01T14:47:33.748Z,28.34
2018-03-01T14:50:02.427Z,29.93
2018-03-01T14:52:31.221Z,31.48
2018-03-01T14:54:59.888Z,32.11
2018-03-01T14:57:29.352Z,32.00
2018-03-01T14:59:58.423Z,33.39
2018-03-01T15:02:27.129Z,33.88
2018-03-01T15:04:55.815Z,34.43
2018-03-01T15:07:24.425Z,33.53
2018-03-01T15:09:53.186Z,34.76
2018-03-01T15:12:21.861Z,34.81
2018-03-01T15:14:50.656Z,33.72
2018-03-01T15:17:19.296Z,33.17
2018-03-01T15:19:48.028Z,34.04
2018-03-01T15:22:16.824Z,34.41
2018-03-01T15:24:45.510Z,34.22
2018-03-01T15:27:14.197Z,33.95
2018-03-01T15:29:43.037Z,34.17
2018-03-01T15:32:11.765Z,33.97
2018-03-01T15:34:40.421Z,33.78
2018-03-01T15:37:09.246Z,36.04
2018-03-01T15:39:37.879Z,37.11
2018-03-01T15:42:07.327Z,37.40
2018-03-01T15:44:36.067Z,35.70
2018-03-01T15:47:04.802Z,38.12
2018-03-01T15:49:33.452Z,38.35
2018-03-01T15:52:02.444Z,38.84
2018-03-01T15:54:31.167Z,39.81
2018-03-01T15:56:59.805Z,39.36
2018-03-01T15:59:28.498Z,38.95
2018-03-01T16:01:57.225Z,39.83
2018-03-01T16:04:25.930Z,39.36
2018-03-01T16:06:55.513Z,39.78
2018-03-01T16:09:24.167Z,39.24
2018-03-01T16:11:52.894Z,39.95
2018-03-01T16:14:21.887Z,39.98
2018-03-01T16:16:50.573Z,40.03
2018-03-01T16:19:19.259Z,40.85
2018-03-01T16:21:47.945Z,40.17
2018-03-01T16:24:16.624Z,40.27
2018-03-01T16:26:45.317Z,39.95
2018-03-01T16:29:14.100Z,41.01
2018-03-01T16:31:42.688Z,41.78
2018-03-01T16:34:11.369Z,42.15
2018-03-01T16:36:41.126Z,42.29
2018-03-01T16:39:09.754Z,41.77
2018-03-01T16:41:39.171Z,40.98
2018-03-01T16:44:07.896Z,40.32
2018-03-01T16:46:36.599Z,40.45
2018-03-01T16:49:05.372Z,40.53
2018-03-01T16:51:34.236Z,40.36
2018-03-01T16:54:02.935Z,40.22
2018-03-01T16:56:33.077Z,40.31
2018-03-01T16:59:01.874Z,40.50
2018-03-01T17:01:30.431Z,40.08
2018-03-01T17:03:59.896Z,41.37
2018-03-01T17:06:28.691Z,41.98
2018-03-01T17:08:57.361Z,41.83
2018-03-01T17:11:26.004Z,41.72
2018-03-01T17:13:55.476Z,41.32
2018-03-01T17:16:24.148Z,41.99
2018-03-01T17:18:52.834Z,42.10
2018-03-01T17:21:21.725Z,42.04
2018-03-01T17:23:50.413Z,41.69
2018-03-01T17:26:18.994Z,41.86
2018-03-01T17:28:47.889Z,41.01
2018-03-01T17:31:17.326Z,41.56
2018-03-01T17:33:46.014Z,41.65
2018-03-01T17:36:14.834Z,41.06
2018-03-01T17:38:44.297Z,41.51
2018-03-01T17:41:12.993Z,40.82
2018-03-01T17:43:41.877Z,41.24
2018-03-01T17:46:10.563Z,40.33
2018-03-01T17:48:39.199Z,40.63
2018-03-01T17:51:08.814Z,39.91
2018-03-01T17:53:37.509Z,40.58
2018-03-01T17:56:06.097Z,40.68
2018-03-01T17:58:34.777Z,39.66
2018-03-01T18:01:03.341Z,40.09
2018-03-01T18:03:32.002Z,40.40
2018-03-01T18:06:00.731Z,39.94
2018-03-01T18:08:29.284Z,39.84
2018-03-01T18:10:58.004Z,40.17
2018-03-01T18:13:26.997Z,39.37
2018-03-01T18:15:55.577Z,38.58
2018-03-01T18:18:24.269Z,39.15
2018-03-01T18:20:53.213Z,39.87
2018-03-01T18:23:21.950Z,40.50
2018-03-01T18:25:50.525Z,41.14
2018-03-01T18:28:19.600Z,40.15
2018-03-01T18:30:48.313Z,40.04
2018-03-01T18:33:16.895Z,40.67
2018-03-01T18:35:45.628Z,39.77
2018-03-01T18:38:14.949Z,40.02
2018-03-01T18:40:43.614Z,39.10
2018-03-01T18:43:18.885Z,37.88
2018-03-01T18:45:47.593Z,39.23
2018-03-01T18:48:16.277Z,42.16
2018-03-01T18:50:45.109Z,40.51
2018-03-01T18:53:14.580Z,39.45
2018-03-01T18:55:43.273Z,39.82
2018-03-01T18:58:11.998Z,38.58
2018-03-01T19:00:40.729Z,38.76
2018-03-01T19:03:09.414Z,41.24
2018-03-01T19:05:38.209Z,41.44
2018-03-01T19:08:06.834Z,41.56
2018-03-01T19:10:36.295Z,40.99
2018-03-01T19:13:05.188Z,39.50
2018-03-01T19:15:33.747Z,38.98
2018-03-01T19:18:02.451Z,38.87
2018-03-01T19:20:31.246Z,38.78
2018-03-01T19:22:59.889Z,37.37
2018-03-01T19:25:28.617Z,37.06
2018-03-01T19:27:57.809Z,36.61
2018-03-01T19:30:26.498Z,34.93
2018-03-01T19:32:55.084Z,35.11
2018-03-01T19:35:23.866Z,34.57
2018-03-01T19:37:52.499Z,38.13
2018-03-01T19:40:21.961Z,41.72
2018-03-01T19:42:50.648Z,42.83
2018-03-01T19:45:19.224Z,42.93
2018-03-01T19:47:47.910Z,44.98
2018-03-01T19:50:16.705Z,44.35
2018-03-01T19:52:45.285Z,47.43
2018-03-01T19:55:13.968Z,47.04
2018-03-01T19:57:42.941Z,47.07
2018-03-01T20:00:11.650Z,47.41
2018-03-01T20:02:40.336Z,47.06
2018-03-01T20:05:09.127Z,47.30
2018-03-01T20:07:37.813Z,45.25
2018-03-01T20:10:06.451Z,45.66
2018-03-01T20:12:36.001Z,45.82
2018-03-01T20:15:04.802Z,43.04
2018-03-01T20:17:34.257Z,44.70
2018-03-01T20:20:03.346Z,43.58
2018-03-01T20:22:32.081Z,44.05
2018-03-01T20:25:00.764Z,43.14
2018-03-01T20:27:29.649Z,41.75
2018-03-01T20:29:58.386Z,41.90
2018-03-01T20:32:27.843Z,41.36
2018-03-01T20:34:56.580Z,42.29
2018-03-01T20:37:26.199Z,43.25
2018-03-01T20:39:54.735Z,44.69
2018-03-01T20:42:23.509Z,45.91
2018-03-01T20:44:52.296Z,45.61
2018-03-01T20:47:21.848Z,48.91
2018-03-01T20:49:51.301Z,47.76
2018-03-01T20:52:20.006Z,47.29
2018-03-01T20:54:48.570Z,47.27
2018-03-01T20:57:17.361Z,49.28
2018-03-01T20:59:46.064Z,46.15
2018-03-01T21:02:14.839Z,44.53
2018-03-01T21:04:43.989Z,43.32
2018-03-01T21:07:13.302Z,43.14
2018-03-01T21:09:42.025Z,42.81
2018-03-01T21:12:11.117Z,41.61
2018-03-01T21:14:39.806Z,42.39
2018-03-01T21:17:08.431Z,43.21
2018-03-01T21:19:38.174Z,43.59
2018-03-01T21:22:06.882Z,43.09
2018-03-01T21:24:35.468Z,43.49
2018-03-01T21:27:04.254Z,44.06
2018-03-01T21:29:32.940Z,43.93
2018-03-01T21:32:01.587Z,43.91
2018-03-01T21:34:30.269Z,44.38
2018-03-01T21:36:59.820Z,48.43
2018-03-01T21:39:28.412Z,48.90
2018-03-01T21:41:57.185Z,48.16
2018-03-01T21:44:25.975Z,48.70
2018-03-01T21:47:08.694Z,49.66
2018-03-01T21:49:37.480Z,47.95
2018-03-01T21:52:06.274Z,47.90
2018-03-01T21:54:35.367Z,48.10
2018-03-01T21:57:03.989Z,48.83
2018-03-01T21:59:33.452Z,49.34
2018-03-01T22:02:02.138Z,47.30
2018-03-01T22:04:30.823Z,45.62
2018-03-01T22:06:59.459Z,44.96
2018-03-01T22:09:28.404Z,46.87
2018-03-01T22:11:56.993Z,47.07
2018-03-01T22:14:25.556Z,47.13
2018-03-01T22:16:54.504Z,48.69
2018-03-01T22:19:23.919Z,47.60
2018-03-01T22:21:53.368Z,45.29
2018-03-01T22:24:22.262Z,46.11
2018-03-01T22:26:51.147Z,47.15
2018-03-01T22:29:19.793Z,45.53
2018-03-01T22:31:48.785Z,44.86
2018-03-01T22:34:17.510Z,44.61
2018-03-01T22:36:46.146Z,43.40
2018-03-01T22:39:15.688Z,44.29
2018-03-01T22:41:44.392Z,42.78
2018-03-01T22:44:13.082Z,43.28
2018-03-01T22:46:41.763Z,46.45
2018-03-01T22:49:10.453Z,45.56
2018-03-01T22:51:39.019Z,44.42
2018-03-01T22:54:07.769Z,44.84
2018-03-01T22:56:37.330Z,45.97
2018-03-01T22:59:05.899Z,44.92
2018-03-01T23:01:34.801Z,45.61
2018-03-01T23:04:03.567Z,46.11
2018-03-01T23:06:32.269Z,45.47
2018-03-01T23:09:00.975Z,45.62
2018-03-01T23:11:29.709Z,44.83
2018-03-01T23:13:58.363Z,45.96
2018-03-01T23:16:27.174Z,45.09
2018-03-01T23:18:55.875Z,45.33
2018-03-01T23:21:24.453Z,45.10
2018-03-01T23:23:53.202Z,44.49
2018-03-01T23:26:21.933Z,45.63
2018-03-01T23:28:50.619Z,46.33
2018-03-01T23:31:19.659Z,45.76
2018-03-01T23:33:49.110Z,44.67
2018-03-01T23:36:17.797Z,45.61
2018-03-01T23:38:46.648Z,45.32
2018-03-01T23:41:15.994Z,45.87
2018-03-01T23:43:45.547Z,46.28
2018-03-01T23:46:15.106Z,46.07
2018-03-01T23:48:43.728Z,45.57
2018-03-01T23:51:13.192Z,46.08
2018-03-01T23:53:42.185Z,47.00
2018-03-01T23:56:11.079Z,45.82
2018-03-01T23:58:39.764Z,46.85
